Flight Track Log - Related Links

Times and Time Zones

All times are in EDT time to prevent confusion due to time zone crossing. See the JZA7828 flight status page for this flight to view local times or setup timezone preferences in your user account.

Time Position Orientation Groundspeed Altitude Reporting Facility
EDT Latitude Longitude Course Direction KTS MPH feet Rate Location/Type
Wed 12:03:36 PM 48.3333 -81.3667 170° South 250 288 9,500  Level Toronto Center
Wed 12:04:00 PM 48.1080 -81.1975 199° South  Level Estimated
Wed 12:04:36 PM 48.2667 -81.3333 162° South 270 311 11,600  Level Toronto Center
Wed 12:05:00 PM 48.0156 -81.1620 199° South  Level Estimated
Wed 12:05:36 PM 48.1833 -81.3000 165° South 280 322 13,300  Level Toronto Center
Wed 12:06:00 PM 47.9474 -81.2618 224° Southwest  Level FlightAware Approximate
Wed 12:06:36 PM 48.1000 -81.3000 180° South 280 322 15,300  Level Toronto Center
Wed 12:07:00 PM 47.8792 -81.3612 224° Southwest  Level FlightAware Approximate
Wed 12:07:36 PM 48.0333 -81.2833 171° South 290 334 16,900  Level Toronto Center
Wed 12:08:00 PM 47.8059 -81.2887 146° Southeast  Level FlightAware Approximate
Wed 12:08:36 PM 47.9500 -81.2500 165° South 290 334 18,300  Level Toronto Center
Wed 12:09:00 PM 47.7180 -81.2378 170° South  Level FlightAware Approximate
Wed 12:09:36 PM 47.8667 -81.2167 165° South 280 322 19,900  Level Toronto Center
Wed 12:10:36 PM 47.8000 -81.2000 170° South 280 322 21,500 1,550 Climbing Toronto Center
Wed 12:11:36 PM 47.7167 -81.1667 165° South 270 311 23,000 1,350 Climbing Toronto Center
Wed 12:12:36 PM 47.6500 -81.1333 161° South 280 322 24,200 1,000 Climbing Toronto Center
Wed 12:13:36 PM 47.5667 -81.1333 180° South 280 322 25,000 400 Climbing Toronto Center
Wed 12:14:36 PM 47.4833 -81.1167 172° South 310 357 25,000  Level Toronto Center
Wed 12:15:36 PM 47.3833 -81.0667 161° South 340 391 25,000  Level Toronto Center
Wed 12:16:36 PM 47.3000 -81.0333 165° South 350 403 25,000  Level Toronto Center
Wed 12:17:36 PM 47.2000 -81.0000 167° South 360 414 25,000  Level Toronto Center
Wed 12:18:36 PM 47.1000 -80.9833 174° South 350 403 25,000  Level Toronto Center
Wed 12:19:36 PM 47.0167 -80.9500 165° South 350 403 25,000  Level Toronto Center
Wed 12:20:36 PM 46.9000 -80.9167 169° South 350 403 25,000  Level Toronto Center
Wed 12:21:36 PM 46.8333 -80.9000 170° South 350 403 25,000  Level Toronto Center
Wed 12:22:36 PM 46.7333 -80.8667 167° South 360 414 25,000  Level Toronto Center
Wed 12:23:36 PM 46.6333 -80.8500 173° South 360 414 25,000  Level Toronto Center
Wed 12:24:36 PM 46.5333 -80.8167 167° South 360 414 25,000  Level Toronto Center
Wed 12:25:36 PM 46.4333 -80.8000 173° South 350 403 25,000  Level Toronto Center
Wed 12:26:36 PM 46.3333 -80.7500 161° South 350 403 25,000  Level Toronto Center
Wed 12:27:36 PM 46.2500 -80.7167 165° South 350 403 25,000  Level Toronto Center
Wed 12:28:36 PM 46.1500 -80.6833 167° South 360 414 25,000  Level Toronto Center
Wed 12:29:36 PM 46.0500 -80.6667 173° South 350 403 25,000  Level Toronto Center
Wed 12:30:36 PM 45.9667 -80.6333 164° South 350 403 25,000  Level Toronto Center
Wed 12:31:36 PM 45.8667 -80.6167 173° South 350 403 25,000  Level Toronto Center
Wed 12:32:36 PM 45.7667 -80.5833 167° South 350 403 25,000  Level Toronto Center
Wed 12:33:36 PM 45.6667 -80.5667 173° South 350 403 25,000  Level Toronto Center
Wed 12:34:36 PM 45.5667 -80.5333 167° South 350 403 25,000  Level Toronto Center
Wed 12:35:36 PM 45.4667 -80.5167 173° South 350 403 25,000  Level Toronto Center
Wed 12:36:36 PM 45.3833 -80.4667 157° South 350 403 25,000  Level Toronto Center
Wed 12:37:36 PM 45.2833 -80.4333 167° South 350 403 25,000  Level Toronto Center
Wed 12:38:36 PM 45.1833 -80.4167 173° South 350 403 25,000  Level Toronto Center
Wed 12:39:36 PM 45.0833 -80.3833 167° South 350 403 25,000  Level Toronto Center
Wed 12:40:36 PM 45.0000 -80.3667 172° South 350 403 25,000  Level Toronto Center
Wed 12:41:36 PM 44.9000 -80.3333 167° South 350 403 25,000  Level Toronto Center
Wed 12:42:36 PM 44.8000 -80.3167 173° South 350 403 25,000 -600 Level Toronto Center
Wed 12:43:36 PM 44.7000 -80.2833 167° South 360 414 23,800 -1,350 Descending Toronto Center
Wed 12:44:36 PM 44.6000 -80.2667 173° South 350 403 22,300 -1,500 Descending Toronto Center
Wed 12:45:36 PM 44.5167 -80.2333 164° South 360 414 20,800 -1,550 Descending Toronto Center
Wed 12:46:36 PM 44.4000 -80.2000 168° South 360 414 19,200 -1,450 Descending Toronto Center
Wed 12:47:36 PM 44.3167 -80.1667 164° South 370 426 17,900 -1,550 Descending Toronto Center
Wed 12:48:36 PM 44.2000 -80.1500 174° South 360 414 16,100 -1,600 Descending Toronto Center
Wed 12:49:36 PM 44.1167 -80.1167 164° South 350 403 14,700 -1,400 Descending Toronto Center
Wed 12:50:36 PM 44.0500 -80.0333 138° Southeast 350 403 13,300 -1,400 Descending Toronto Center
Wed 12:51:36 PM 43.9667 -79.9500 144° Southeast 330 380 11,900 -1,300 Descending Toronto Center
Wed 12:52:36 PM 43.9167 -79.8833 136° Southeast 300 345 10,700 -1,200 Descending Toronto Center
Wed 12:54:36 PM 43.7833 -79.7500 144° Southeast 280 322 8,300 -1,167 Descending Toronto Center
Wed 12:55:36 PM 43.7167 -79.7333 170° South 260 299 7,200 -1,400 Descending Toronto Center
Wed 12:56:36 PM 43.6667 -79.8000 224° Southwest 240 276 5,500 -1,600 Descending Toronto Center
Wed 12:57:36 PM 43.6333 -79.8667 235° Southwest 220 253 4,000 -800 Descending Toronto Center
Wed 12:58:36 PM 43.5833 -79.8833 194° South 200 230 3,900 -300 Descending Toronto Center
Wed 12:59:36 PM 43.5500 -79.8667 160° South 200 230 3,400 -450 Descending Toronto Center
Wed 01:00:36 PM 43.5667 -79.8000 71° East 180 207 3,000 -450 Descending Toronto Center
Wed 01:01:36 PM 43.6000 -79.7500 47° Northeast 180 207 2,500 -700 Descending Toronto Center
Wed 01:02:36 PM 43.6333 -79.7000 47° Northeast 160 184 1,600 -800 Descending Toronto Center
Wed 01:03:36 PM 43.6500 -79.6500 65° Northeast 140 161 900 -500 Descending Toronto Center
Wed 01:04:36 PM 43.6833 -79.6333 20° North 130 150 600 -300 Descending Toronto Center

Login

Don't have an account? Register now (free) for customized features, flight alerts, and more!